Time;durP1;ratioP1;P1;durP2;ratioP2;P2;SDS_P1;SDS_P2;PMS_P1;PMS_P2;Temp;Humidity;BMP_temperature;BMP_pressure;BME280_temperature;BME280_humidity;BME280_pressure;Samples;Min_cycle;Max_cycle;Signal;HPM_P1;HPM_P2
2022/04/07 00:01:23;;;;;;;0.32;0.20;;;;;;;;;;5019283;28;20064;-82
2022/04/07 00:03:51;;;;;;;1.13;1.05;;;;;;;;;;5032130;28;20390;-81
2022/04/07 00:06:18;;;;;;;0.10;0.10;;;;;;;;;;5014238;28;20026;-80
2022/04/07 00:08:43;;;;;;;0.20;0.20;;;;;;;;;;5016373;28;20040;-81
2022/04/07 00:11:11;;;;;;;0.20;0.20;;;;;;;;;;5020523;28;20394;-82
2022/04/07 00:13:37;;;;;;;0.20;0.15;;;;;;;;;;5017030;28;20088;-81
2022/04/07 00:16:05;;;;;;;0.00;0.00;;;;;;;;;;5019912;28;20447;-85
2022/04/07 00:18:30;;;;;;;0.25;0.25;;;;;;;;;;5015505;28;20029;-92
2022/04/07 00:21:02;;;;;;;0.00;0.00;;;;;;;;;;5016887;28;20324;-85
2022/04/07 00:23:28;;;;;;;0.35;0.35;;;;;;;;;;5016291;28;20149;-87
2022/04/07 00:25:53;;;;;;;0.55;0.38;;;;;;;;;;5012798;28;20046;-84
2022/04/07 00:28:18;;;;;;;0.17;0.17;;;;;;;;;;5015400;28;20455;-83
2022/04/07 00:30:46;;;;;;;0.30;0.28;;;;;;;;;;5016959;28;20037;-83
2022/04/07 00:33:12;;;;;;;0.00;0.00;;;;;;;;;;5015857;28;20068;-82
2022/04/07 00:35:37;;;;;;;0.03;0.03;;;;;;;;;;5019418;28;20404;-85
2022/04/07 00:38:03;;;;;;;0.40;0.40;;;;;;;;;;5014150;28;20108;-81
2022/04/07 00:40:29;;;;;;;0.60;0.60;;;;;;;;;;5015953;28;20096;-80
2022/04/07 00:42:57;;;;;;;0.30;0.20;;;;;;;;;;5021316;28;20034;-80
2022/04/07 00:45:23;;;;;;;0.43;0.43;;;;;;;;;;5015698;28;20030;-81
2022/04/07 00:47:49;;;;;;;0.65;0.65;;;;;;;;;;5012930;28;20092;-80
2022/04/07 00:50:17;;;;;;;0.00;0.00;;;;;;;;;;5035347;28;20050;-85
2022/04/07 00:52:49;;;;;;;0.30;0.30;;;;;;;;;;5015330;28;20079;-86
2022/04/07 00:55:15;;;;;;;0.60;0.60;;;;;;;;;;5025198;28;20319;-84
2022/04/07 00:57:41;;;;;;;0.52;0.20;;;;;;;;;;5015687;28;20040;-84
2022/04/07 01:00:10;;;;;;;0.00;0.00;;;;;;;;;;5015024;28;20038;-81
2022/04/07 01:02:36;;;;;;;0.08;0.08;;;;;;;;;;5016769;28;20037;-81
2022/04/07 01:05:09;;;;;;;0.00;0.00;;;;;;;;;;5015159;28;20021;-79
2022/04/07 01:07:39;;;;;;;0.00;0.00;;;;;;;;;;5014770;28;20030;-81
2022/04/07 01:10:06;;;;;;;0.17;0.10;;;;;;;;;;5014188;28;20041;-84
2022/04/07 01:12:37;;;;;;;0.03;0.03;;;;;;;;;;5025072;28;20032;-83
2022/04/07 01:15:07;;;;;;;0.00;0.00;;;;;;;;;;5018233;28;20164;-81
2022/04/07 01:17:35;;;;;;;0.00;0.00;;;;;;;;;;5015396;28;20025;-83
2022/04/07 01:20:03;;;;;;;0.00;0.00;;;;;;;;;;5015374;28;20037;-80
2022/04/07 01:22:28;;;;;;;0.00;0.00;;;;;;;;;;5018534;28;20517;-83
2022/04/07 01:24:53;;;;;;;0.17;0.17;;;;;;;;;;5014465;28;20037;-82
2022/04/07 01:27:19;;;;;;;0.20;0.20;;;;;;;;;;5013714;28;20045;-83
2022/04/07 01:29:48;;;;;;;39.78;1.17;;;;;;;;;;5015083;28;20026;-83
2022/04/07 01:32:28;;;;;;;0.00;0.00;;;;;;;;;;5016174;28;20470;-81
2022/04/07 01:34:53;;;;;;;0.00;0.00;;;;;;;;;;5014284;28;20107;-84
2022/04/07 01:37:19;;;;;;;0.08;0.08;;;;;;;;;;5013146;28;20443;-79
2022/04/07 01:39:45;;;;;;;0.00;0.00;;;;;;;;;;5011807;28;20051;-83
2022/04/07 01:42:12;;;;;;;0.00;0.00;;;;;;;;;;5003101;28;20404;-80
2022/04/07 01:44:42;;;;;;;0.00;0.00;;;;;;;;;;5015033;28;20053;-82
2022/04/07 01:47:08;;;;;;;4.28;0.85;;;;;;;;;;5014081;28;20031;-80
2022/04/07 01:49:35;;;;;;;0.10;0.10;;;;;;;;;;5012608;28;20118;-81
2022/04/07 01:52:04;;;;;;;0.00;0.00;;;;;;;;;;4998002;28;20490;-84
2022/04/07 01:54:32;;;;;;;0.28;0.17;;;;;;;;;;5016269;28;20029;-80
2022/04/07 01:56:57;;;;;;;0.40;0.40;;;;;;;;;;5014397;28;20036;-81
2022/04/07 01:59:24;;;;;;;0.00;0.00;;;;;;;;;;5015567;28;20034;-83
2022/04/07 02:01:49;;;;;;;0.00;0.00;;;;;;;;;;5007493;28;20061;-81
2022/04/07 02:04:17;;;;;;;0.00;0.00;;;;;;;;;;5023850;28;20030;-81
2022/04/07 02:06:43;;;;;;;0.47;0.32;;;;;;;;;;5007675;28;20375;-81
2022/04/07 02:09:09;;;;;;;0.05;0.00;;;;;;;;;;5010081;28;20030;-78
2022/04/07 02:11:37;;;;;;;0.00;0.00;;;;;;;;;;5009410;28;20025;-81
2022/04/07 02:14:02;;;;;;;0.10;0.10;;;;;;;;;;5018306;28;20084;-83
2022/04/07 02:16:30;;;;;;;0.52;0.25;;;;;;;;;;5013676;28;20025;-82
2022/04/07 02:18:55;;;;;;;0.10;0.10;;;;;;;;;;5015494;28;20054;-81
2022/04/07 02:21:21;;;;;;;0.00;0.00;;;;;;;;;;5013143;28;20111;-80
2022/04/07 02:23:46;;;;;;;0.10;0.10;;;;;;;;;;5013000;28;20037;-81
2022/04/07 02:26:13;;;;;;;0.05;0.05;;;;;;;;;;5013202;28;20045;-82
2022/04/07 02:28:39;;;;;;;0.17;0.00;;;;;;;;;;5013221;28;20034;-84
2022/04/07 02:31:07;;;;;;;0.00;0.00;;;;;;;;;;5014775;28;20029;-83
2022/04/07 02:33:35;;;;;;;0.00;0.00;;;;;;;;;;5016996;28;20066;-74
2022/04/07 02:36:04;;;;;;;0.10;0.10;;;;;;;;;;5011864;28;20145;-75
2022/04/07 02:38:32;;;;;;;0.00;0.00;;;;;;;;;;5014140;28;20486;-74
2022/04/07 02:40:57;;;;;;;0.30;0.30;;;;;;;;;;5016896;28;20407;-74
2022/04/07 02:43:23;;;;;;;0.00;0.00;;;;;;;;;;5004476;28;20064;-78
2022/04/07 02:45:48;;;;;;;7.82;0.55;;;;;;;;;;5012709;28;20482;-74
2022/04/07 02:48:16;;;;;;;0.00;0.00;;;;;;;;;;5013849;28;20367;-75
2022/04/07 02:50:42;;;;;;;0.00;0.00;;;;;;;;;;5010876;28;20044;-74
2022/04/07 02:53:08;;;;;;;0.57;0.57;;;;;;;;;;5017555;28;20110;-75
2022/04/07 02:55:33;;;;;;;1.95;0.80;;;;;;;;;;5013938;28;20108;-75
2022/04/07 02:57:59;;;;;;;0.00;0.00;;;;;;;;;;5012722;28;20096;-76
2022/04/07 03:00:25;;;;;;;0.00;0.00;;;;;;;;;;5003452;28;20084;-76
2022/04/07 03:02:50;;;;;;;1.13;0.45;;;;;;;;;;5017522;28;20025;-75
2022/04/07 03:05:18;;;;;;;0.13;0.13;;;;;;;;;;5033442;28;20050;-76
2022/04/07 03:07:43;;;;;;;0.10;0.10;;;;;;;;;;5016656;28;20099;-77
2022/04/07 03:10:09;;;;;;;0.38;0.25;;;;;;;;;;5012821;28;20022;-77
2022/04/07 03:12:39;;;;;;;2.42;1.55;;;;;;;;;;5010521;28;20022;-76
2022/04/07 03:15:05;;;;;;;0.22;0.22;;;;;;;;;;5016682;28;20065;-76
2022/04/07 03:17:33;;;;;;;0.00;0.00;;;;;;;;;;5017196;28;20431;-80
2022/04/07 03:20:00;;;;;;;0.20;0.20;;;;;;;;;;5017758;28;20079;-78
2022/04/07 03:22:26;;;;;;;0.00;0.00;;;;;;;;;;5007587;28;20049;-77
2022/04/07 03:24:52;;;;;;;1.90;0.22;;;;;;;;;;5028296;28;20405;-75
2022/04/07 03:27:17;;;;;;;0.13;0.13;;;;;;;;;;5016805;28;20026;-79
2022/04/07 03:29:45;;;;;;;0.38;0.38;;;;;;;;;;5017127;28;20104;-74
2022/04/07 03:32:11;;;;;;;0.08;0.08;;;;;;;;;;5017362;28;20025;-77
2022/04/07 03:34:36;;;;;;;0.38;0.20;;;;;;;;;;5011344;28;20087;-76
2022/04/07 03:37:03;;;;;;;0.10;0.10;;;;;;;;;;5017314;28;20034;-74
2022/04/07 03:39:29;;;;;;;0.45;0.45;;;;;;;;;;5019793;28;20025;-73
2022/04/07 03:41:54;;;;;;;0.00;0.00;;;;;;;;;;5017654;28;20021;-75
2022/04/07 03:44:19;;;;;;;0.10;0.10;;;;;;;;;;5016160;28;20108;-75
2022/04/07 03:46:47;;;;;;;0.20;0.20;;;;;;;;;;5016924;28;20113;-73
2022/04/07 03:49:14;;;;;;;0.17;0.17;;;;;;;;;;5017883;28;20069;-73
2022/04/07 03:51:40;;;;;;;0.30;0.30;;;;;;;;;;5018205;28;20029;-73
2022/04/07 03:54:05;;;;;;;2.25;0.55;;;;;;;;;;5017308;28;20336;-75
2022/04/07 03:56:30;;;;;;;0.10;0.10;;;;;;;;;;5015878;28;20049;-74
2022/04/07 03:58:58;;;;;;;0.00;0.00;;;;;;;;;;5012287;28;20072;-74
2022/04/07 04:01:25;;;;;;;0.70;0.70;;;;;;;;;;5018491;28;20018;-74
2022/04/07 04:03:51;;;;;;;0.00;0.00;;;;;;;;;;5015743;28;20030;-73
2022/04/07 04:06:16;;;;;;;0.00;0.00;;;;;;;;;;5015877;28;20026;-73
2022/04/07 04:08:41;;;;;;;0.08;0.08;;;;;;;;;;5016231;28;20113;-76
2022/04/07 04:11:07;;;;;;;0.10;0.10;;;;;;;;;;5014749;28;20072;-75
2022/04/07 04:13:32;;;;;;;0.05;0.05;;;;;;;;;;5019468;28;20121;-73
2022/04/07 04:15:58;;;;;;;1.15;0.40;;;;;;;;;;5015324;28;20036;-73
2022/04/07 04:18:26;;;;;;;0.20;0.20;;;;;;;;;;5015967;28;20067;-75
2022/04/07 04:20:51;;;;;;;0.00;0.00;;;;;;;;;;5020951;28;20018;-73
2022/04/07 04:23:16;;;;;;;0.25;0.22;;;;;;;;;;5013301;28;20428;-74
2022/04/07 04:25:42;;;;;;;0.00;0.00;;;;;;;;;;5015125;28;20037;-74
2022/04/07 04:28:07;;;;;;;0.35;0.35;;;;;;;;;;5015890;28;20022;-73
2022/04/07 04:30:32;;;;;;;0.00;0.00;;;;;;;;;;5020360;28;20044;-73
2022/04/07 04:33:03;;;;;;;5.53;0.45;;;;;;;;;;5016008;28;20014;-74
2022/04/07 04:35:28;;;;;;;0.63;0.63;;;;;;;;;;5006158;28;20033;-76
2022/04/07 04:37:56;;;;;;;0.00;0.00;;;;;;;;;;5016232;28;20455;-73
2022/04/07 04:40:21;;;;;;;0.00;0.00;;;;;;;;;;5010179;28;20037;-73
2022/04/07 04:42:47;;;;;;;0.10;0.10;;;;;;;;;;5015843;28;20459;-73
2022/04/07 04:45:12;;;;;;;0.10;0.00;;;;;;;;;;5015599;28;20026;-73
2022/04/07 04:47:37;;;;;;;0.00;0.00;;;;;;;;;;5015548;28;20034;-73
2022/04/07 04:50:07;;;;;;;0.00;0.00;;;;;;;;;;5016203;28;20487;-73
2022/04/07 04:52:32;;;;;;;0.00;0.00;;;;;;;;;;5015766;28;20037;-76
2022/04/07 04:54:57;;;;;;;1.20;0.15;;;;;;;;;;5015579;28;20037;-75
2022/04/07 04:57:23;;;;;;;0.10;0.10;;;;;;;;;;5014749;28;20030;-76
2022/04/07 04:59:48;;;;;;;0.00;0.00;;;;;;;;;;5012970;28;20359;-75
2022/04/07 05:02:16;;;;;;;0.17;0.17;;;;;;;;;;5015203;28;20045;-76
2022/04/07 05:04:41;;;;;;;0.00;0.00;;;;;;;;;;5015478;28;20041;-77
2022/04/07 05:07:07;;;;;;;0.00;0.00;;;;;;;;;;5015263;28;20352;-84
2022/04/07 05:09:32;;;;;;;0.13;0.10;;;;;;;;;;5016943;28;20355;-74
2022/04/07 05:12:00;;;;;;;0.38;0.30;;;;;;;;;;5019921;28;20052;-74
2022/04/07 05:14:25;;;;;;;0.00;0.00;;;;;;;;;;5015403;28;20037;-75
2022/04/07 05:16:53;;;;;;;0.32;0.32;;;;;;;;;;5015203;28;20025;-75
2022/04/07 05:19:34;;;;;;;0.00;0.00;;;;;;;;;;5015212;28;20033;-75
2022/04/07 05:22:02;;;;;;;0.38;0.10;;;;;;;;;;5014369;28;20076;-75
2022/04/07 05:24:27;;;;;;;0.00;0.00;;;;;;;;;;5014079;28;20025;-75
2022/04/07 05:26:56;;;;;;;0.00;0.00;;;;;;;;;;5015498;28;20026;-76
2022/04/07 05:29:23;;;;;;;1.38;1.27;;;;;;;;;;5015647;28;20099;-75
2022/04/07 05:31:49;;;;;;;0.10;0.10;;;;;;;;;;5030911;28;20436;-76
2022/04/07 05:34:46;;;;;;;0.25;0.25;;;;;;;;;;5018397;28;20049;-76
2022/04/07 05:37:14;;;;;;;0.00;0.00;;;;;;;;;;4992380;28;20484;-75
2022/04/07 05:39:40;;;;;;;0.00;0.00;;;;;;;;;;5013160;28;20045;-75
2022/04/07 05:42:07;;;;;;;0.35;0.28;;;;;;;;;;5014167;28;20018;-75
2022/04/07 05:44:33;;;;;;;0.00;0.00;;;;;;;;;;5015431;28;20029;-74
2022/04/07 05:47:01;;;;;;;0.00;0.00;;;;;;;;;;5013472;28;20025;-77
2022/04/07 05:49:28;;;;;;;0.10;0.10;;;;;;;;;;5013948;28;20467;-75
2022/04/07 05:52:00;;;;;;;0.00;0.00;;;;;;;;;;5013530;28;20026;-74
2022/04/07 05:54:27;;;;;;;0.75;0.75;;;;;;;;;;5014588;28;20111;-78
2022/04/07 05:57:04;;;;;;;0.28;0.28;;;;;;;;;;5012642;28;20486;-74
2022/04/07 05:59:32;;;;;;;0.00;0.00;;;;;;;;;;5015660;28;20033;-76
2022/04/07 06:02:00;;;;;;;0.05;0.05;;;;;;;;;;5012439;28;20022;-72
2022/04/07 06:04:28;;;;;;;0.80;0.80;;;;;;;;;;5016160;28;20033;-72
2022/04/07 06:06:53;;;;;;;0.28;0.28;;;;;;;;;;5014425;28;20038;-73
2022/04/07 06:09:18;;;;;;;0.10;0.10;;;;;;;;;;5014367;28;20036;-72
2022/04/07 06:11:44;;;;;;;0.10;0.10;;;;;;;;;;5014188;28;20142;-74
2022/04/07 06:14:09;;;;;;;0.00;0.00;;;;;;;;;;5014121;28;20026;-72
2022/04/07 06:16:34;;;;;;;0.00;0.00;;;;;;;;;;5021312;28;20048;-74
2022/04/07 06:19:00;;;;;;;0.60;0.60;;;;;;;;;;5013532;28;20382;-78
2022/04/07 06:21:29;;;;;;;0.15;0.15;;;;;;;;;;5014477;28;20018;-75
2022/04/07 06:23:57;;;;;;;0.10;0.10;;;;;;;;;;5012787;28;20034;-74
2022/04/07 06:26:23;;;;;;;0.08;0.08;;;;;;;;;;4999456;28;20033;-73
2022/04/07 06:28:49;;;;;;;0.28;0.28;;;;;;;;;;5009832;28;20025;-77
2022/04/07 06:31:14;;;;;;;0.38;0.38;;;;;;;;;;5012686;28;20030;-73
2022/04/07 06:33:39;;;;;;;0.10;0.10;;;;;;;;;;5014362;28;20033;-72
2022/04/07 06:36:05;;;;;;;0.63;0.63;;;;;;;;;;5025619;28;20033;-75
2022/04/07 06:38:33;;;;;;;0.20;0.20;;;;;;;;;;5031230;28;20029;-73
2022/04/07 06:41:01;;;;;;;0.00;0.00;;;;;;;;;;5017603;28;20024;-72
2022/04/07 06:43:27;;;;;;;0.00;0.00;;;;;;;;;;5019722;28;20084;-72
2022/04/07 06:45:53;;;;;;;0.10;0.10;;;;;;;;;;5023010;28;20567;-72
2022/04/07 06:48:18;;;;;;;0.05;0.05;;;;;;;;;;5020349;28;20035;-78
2022/04/07 06:50:44;;;;;;;0.13;0.13;;;;;;;;;;5019697;28;20113;-74
2022/04/07 06:53:12;;;;;;;0.68;0.68;;;;;;;;;;5027878;28;20026;-76
2022/04/07 06:55:38;;;;;;;0.00;0.00;;;;;;;;;;5019020;28;20104;-74
2022/04/07 06:58:06;;;;;;;0.00;0.00;;;;;;;;;;5013807;28;20038;-73
2022/04/07 07:00:35;;;;;;;0.52;0.52;;;;;;;;;;5019175;28;20018;-72
2022/04/07 07:03:05;;;;;;;0.00;0.00;;;;;;;;;;5019112;28;20033;-72
2022/04/07 07:05:32;;;;;;;0.00;0.00;;;;;;;;;;5020535;28;20491;-71
2022/04/07 07:08:27;;;;;;;0.55;0.40;;;;;;;;;;5020693;28;20100;-71
2022/04/07 07:10:55;;;;;;;0.00;0.00;;;;;;;;;;5019582;28;20427;-74
2022/04/07 07:13:23;;;;;;;0.10;0.10;;;;;;;;;;5020165;28;20052;-71
2022/04/07 07:15:49;;;;;;;0.13;0.13;;;;;;;;;;5019410;28;20029;-71
2022/04/07 07:18:16;;;;;;;0.10;0.10;;;;;;;;;;5020526;28;20029;-73
2022/04/07 07:20:41;;;;;;;0.13;0.13;;;;;;;;;;5017352;28;20021;-72
2022/04/07 07:23:09;;;;;;;1.17;0.80;;;;;;;;;;5019632;28;20447;-71
2022/04/07 07:25:35;;;;;;;0.00;0.00;;;;;;;;;;5035294;28;20065;-73
2022/04/07 07:28:01;;;;;;;0.00;0.00;;;;;;;;;;5019254;28;20113;-73
2022/04/07 07:30:29;;;;;;;0.00;0.00;;;;;;;;;;5032522;28;20069;-75
2022/04/07 07:32:55;;;;;;;0.90;0.28;;;;;;;;;;5018685;28;20022;-73
2022/04/07 07:35:22;;;;;;;0.40;0.40;;;;;;;;;;5016341;28;20072;-73
2022/04/07 07:37:50;;;;;;;19.80;0.32;;;;;;;;;;5018149;28;20037;-72
2022/04/07 07:40:18;;;;;;;0.47;0.30;;;;;;;;;;5020502;28;20037;-71
2022/04/07 07:42:47;;;;;;;0.00;0.00;;;;;;;;;;5020363;28;20034;-73
2022/04/07 07:45:12;;;;;;;0.38;0.38;;;;;;;;;;5020027;28;20082;-73
2022/04/07 07:47:40;;;;;;;0.00;0.00;;;;;;;;;;5014437;28;20121;-71
2022/04/07 07:50:06;;;;;;;0.10;0.10;;;;;;;;;;5017984;28;20029;-73
2022/04/07 07:52:32;;;;;;;4.57;1.30;;;;;;;;;;5017089;28;20374;-72
2022/04/07 07:54:57;;;;;;;0.10;0.10;;;;;;;;;;5017049;28;20021;-73
2022/04/07 07:57:25;;;;;;;0.00;0.00;;;;;;;;;;5016879;28;20443;-73
2022/04/07 07:59:51;;;;;;;0.20;0.20;;;;;;;;;;5016615;28;20040;-71
2022/04/07 08:02:17;;;;;;;0.15;0.15;;;;;;;;;;5019993;28;20022;-72
2022/04/07 08:04:44;;;;;;;0.20;0.20;;;;;;;;;;5015970;28;20045;-72
2022/04/07 08:07:17;;;;;;;0.00;0.00;;;;;;;;;;5015418;28;20040;-72
2022/04/07 08:09:44;;;;;;;;;;;;;;;;;;5015348;28;20021;-72
2022/04/07 08:12:10;;;;;;;0.00;0.00;;;;;;;;;;5015408;28;19980;-72
2022/04/07 08:14:35;;;;;;;0.10;0.10;;;;;;;;;;5016877;28;20030;-71
2022/04/07 08:17:01;;;;;;;0.00;0.00;;;;;;;;;;5034030;28;20360;-72
2022/04/07 08:19:26;;;;;;;0.00;0.00;;;;;;;;;;5015618;28;20415;-75
2022/04/07 08:21:52;;;;;;;0.03;0.03;;;;;;;;;;5018372;28;20025;-72
2022/04/07 08:24:22;;;;;;;0.00;0.00;;;;;;;;;;5015943;28;20049;-73
2022/04/07 08:26:47;;;;;;;0.00;0.00;;;;;;;;;;5016217;28;20049;-74
2022/04/07 08:29:15;;;;;;;0.10;0.10;;;;;;;;;;5016359;28;20057;-73
2022/04/07 08:31:43;;;;;;;0.10;0.10;;;;;;;;;;5016811;28;20112;-72
2022/04/07 08:34:11;;;;;;;1.75;0.30;;;;;;;;;;5017181;28;20025;-74
2022/04/07 08:36:40;;;;;;;0.13;0.13;;;;;;;;;;5014796;28;20033;-74
2022/04/07 08:39:06;;;;;;;0.00;0.00;;;;;;;;;;5014870;28;20054;-76
2022/04/07 08:41:33;;;;;;;0.10;0.10;;;;;;;;;;5015668;28;20116;-75
2022/04/07 08:43:59;;;;;;;0.05;0.05;;;;;;;;;;5015901;28;20481;-76
2022/04/07 08:49:15;;;;;;;0.00;0.00;;;;;;;;;;4996793;28;20117;-76
2022/04/07 08:51:47;;;;;;;0.00;0.00;;;;;;;;;;5012837;28;20455;-73
2022/04/07 08:54:12;;;;;;;0.10;0.10;;;;;;;;;;5017108;28;20057;-74
2022/04/07 08:56:47;;;;;;;0.00;0.00;;;;;;;;;;5015141;28;20163;-73
2022/04/07 08:59:15;;;;;;;0.00;0.00;;;;;;;;;;5014552;28;20081;-75
2022/04/07 09:01:41;;;;;;;0.20;0.20;;;;;;;;;;5029631;28;20129;-75
2022/04/07 09:04:21;;;;;;;0.00;0.00;;;;;;;;;;5015961;28;20101;-76
2022/04/07 09:06:55;;;;;;;0.00;0.00;;;;;;;;;;5013428;28;20025;-77
2022/04/07 09:09:25;;;;;;;0.00;0.00;;;;;;;;;;4995753;28;20022;-75
2022/04/07 09:12:02;;;;;;;0.00;0.00;;;;;;;;;;5013674;28;20018;-76
2022/04/07 09:14:45;;;;;;;0.10;0.10;;;;;;;;;;5014637;28;20092;-79
2022/04/07 09:17:13;;;;;;;0.10;0.10;;;;;;;;;;4998600;28;20025;-80
2022/04/07 09:19:53;;;;;;;0.10;0.10;;;;;;;;;;5013514;28;20038;-76
2022/04/07 09:22:28;;;;;;;0.30;0.30;;;;;;;;;;5014994;28;20033;-76
2022/04/07 09:24:53;;;;;;;0.00;0.00;;;;;;;;;;5013913;28;20153;-75
2022/04/07 09:27:19;;;;;;;0.10;0.10;;;;;;;;;;5015128;28;20021;-74
2022/04/07 09:29:46;;;;;;;0.00;0.00;;;;;;;;;;5014319;28;20034;-76
2022/04/07 09:32:21;;;;;;;0.00;0.00;;;;;;;;;;4999216;28;20072;-77
2022/04/07 09:34:54;;;;;;;0.00;0.00;;;;;;;;;;5032351;28;20087;-75
2022/04/07 09:37:22;;;;;;;0.20;0.20;;;;;;;;;;5017875;28;20487;-75
2022/04/07 09:40:02;;;;;;;0.00;0.00;;;;;;;;;;5014993;28;20049;-75
2022/04/07 09:42:27;;;;;;;0.10;0.10;;;;;;;;;;5014966;28;20109;-77
2022/04/07 09:45:01;;;;;;;0.05;0.05;;;;;;;;;;5014076;28;20140;-78
2022/04/07 09:47:47;;;;;;;0.00;0.00;;;;;;;;;;5017726;28;20036;-76
2022/04/07 09:50:29;;;;;;;0.00;0.00;;;;;;;;;;5009211;28;20133;-75
2022/04/07 09:52:58;;;;;;;0.00;0.00;;;;;;;;;;5014779;28;20095;-75
2022/04/07 09:55:28;;;;;;;0.00;0.00;;;;;;;;;;5013795;28;20033;-75
2022/04/07 09:57:54;;;;;;;0.00;0.00;;;;;;;;;;5013805;28;20018;-76
2022/04/07 10:00:21;;;;;;;0.10;0.10;;;;;;;;;;5012930;28;20593;-76
2022/04/07 10:02:47;;;;;;;0.32;0.32;;;;;;;;;;4994887;28;20022;-77
2022/04/07 10:05:13;;;;;;;0.52;0.47;;;;;;;;;;5015621;28;20108;-74
2022/04/07 10:07:41;;;;;;;0.00;0.00;;;;;;;;;;5029682;28;20109;-75
2022/04/07 10:10:09;;;;;;;0.00;0.00;;;;;;;;;;4985369;28;20113;-74
2022/04/07 10:12:34;;;;;;;0.30;0.30;;;;;;;;;;5021448;28;20026;-75
2022/04/07 10:15:00;;;;;;;2.05;1.60;;;;;;;;;;5013360;28;20439;-74
2022/04/07 10:17:25;;;;;;;0.00;0.00;;;;;;;;;;5012593;28;20103;-75
2022/04/07 10:19:58;;;;;;;0.00;0.00;;;;;;;;;;5000123;28;20064;-76
2022/04/07 10:22:46;;;;;;;1.75;1.25;;;;;;;;;;5029782;28;20022;-77
2022/04/07 10:25:33;;;;;;;0.25;0.25;;;;;;;;;;5007163;28;20034;-76
2022/04/07 10:28:03;;;;;;;0.10;0.10;;;;;;;;;;5027362;28;20121;-74
2022/04/07 10:30:35;;;;;;;0.03;0.03;;;;;;;;;;5014250;28;20355;-76
2022/04/07 10:33:02;;;;;;;0.00;0.00;;;;;;;;;;5013144;28;20049;-73
2022/04/07 10:35:37;;;;;;;0.80;0.57;;;;;;;;;;5014096;28;20455;-74
2022/04/07 10:38:07;;;;;;;0.00;0.00;;;;;;;;;;5013663;28;20407;-73
2022/04/07 10:40:56;;;;;;;0.10;0.10;;;;;;;;;;5015909;28;20021;-73
2022/04/07 10:43:22;;;;;;;0.15;0.15;;;;;;;;;;5009282;28;20065;-73
2022/04/07 10:46:06;;;;;;;0.00;0.00;;;;;;;;;;5012685;28;20201;-75
2022/04/07 10:48:45;;;;;;;0.52;0.32;;;;;;;;;;5011548;28;20030;-72
2022/04/07 10:51:11;;;;;;;0.00;0.00;;;;;;;;;;5016982;28;20037;-72
2022/04/07 10:53:39;;;;;;;0.25;0.25;;;;;;;;;;5004585;28;20040;-72
2022/04/07 10:56:08;;;;;;;0.03;0.03;;;;;;;;;;5012866;28;20045;-74
2022/04/07 10:58:43;;;;;;;0.15;0.10;;;;;;;;;;5014459;28;20061;-72
2022/04/07 11:01:16;;;;;;;20.90;1.52;;;;;;;;;;5009139;28;20022;-72
2022/04/07 11:04:22;;;;;;;0.00;0.00;;;;;;;;;;5013334;28;20040;-72
2022/04/07 11:07:13;;;;;;;0.05;0.05;;;;;;;;;;5014221;28;20029;-72
2022/04/07 11:09:45;;;;;;;0.52;0.52;;;;;;;;;;5010927;28;20022;-74
2022/04/07 11:12:34;;;;;;;0.00;0.00;;;;;;;;;;5010069;28;20415;-85
2022/04/07 11:15:03;;;;;;;0.00;0.00;;;;;;;;;;5010970;28;20030;-86
2022/04/07 11:17:37;;;;;;;0.10;0.10;;;;;;;;;;5019163;28;20029;-88
2022/04/07 11:20:03;;;;;;;0.17;0.17;;;;;;;;;;5011096;28;20025;-86
2022/04/07 11:22:47;;;;;;;0.20;0.10;;;;;;;;;;5008906;28;20064;-84
2022/04/07 11:25:14;;;;;;;0.43;0.43;;;;;;;;;;5029703;28;20022;-82
2022/04/07 11:27:43;;;;;;;4.38;1.65;;;;;;;;;;5040235;28;20061;-87
2022/04/07 11:30:15;;;;;;;0.10;0.10;;;;;;;;;;5029913;28;20077;-86
2022/04/07 11:33:18;;;;;;;1.88;0.75;;;;;;;;;;5023610;28;20041;-83
2022/04/07 11:35:44;;;;;;;0.32;0.25;;;;;;;;;;5015435;28;20022;-84
2022/04/07 11:38:10;;;;;;;0.10;0.10;;;;;;;;;;5017468;28;20030;-86
2022/04/07 11:40:35;;;;;;;0.00;0.00;;;;;;;;;;5017046;28;20069;-84
2022/04/07 11:43:04;;;;;;;1.55;0.47;;;;;;;;;;5016619;28;20025;-84
2022/04/07 11:45:32;;;;;;;0.00;0.00;;;;;;;;;;5037110;28;20038;-83
2022/04/07 11:48:00;;;;;;;0.15;0.15;;;;;;;;;;5018147;28;20029;-81
2022/04/07 11:50:27;;;;;;;0.10;0.10;;;;;;;;;;5016986;28;20109;-85
2022/04/07 11:52:54;;;;;;;0.25;0.25;;;;;;;;;;5026871;28;20632;-81
2022/04/07 11:55:28;;;;;;;0.63;0.15;;;;;;;;;;5031941;28;20032;-80
2022/04/07 11:57:59;;;;;;;0.13;0.13;;;;;;;;;;5020965;28;20470;-86
2022/04/07 12:00:29;;;;;;;0.30;0.20;;;;;;;;;;5015845;28;20468;-83
2022/04/07 12:03:04;;;;;;;0.17;0.17;;;;;;;;;;5015703;28;20029;-83
2022/04/07 12:05:32;;;;;;;0.00;0.00;;;;;;;;;;5015394;28;20037;-83
2022/04/07 12:08:10;;;;;;;0.00;0.00;;;;;;;;;;5014599;28;20033;-82
2022/04/07 12:10:36;;;;;;;2.78;0.80;;;;;;;;;;5032077;28;20474;-85
2022/04/07 12:13:01;;;;;;;0.05;0.05;;;;;;;;;;5017184;28;20038;-88
2022/04/07 12:15:27;;;;;;;0.00;0.00;;;;;;;;;;5032269;28;20116;-86
2022/04/07 12:18:09;;;;;;;0.20;0.20;;;;;;;;;;5015545;28;20428;-84
2022/04/07 12:20:38;;;;;;;0.50;0.47;;;;;;;;;;5016429;28;20117;-81
2022/04/07 12:23:10;;;;;;;0.00;0.00;;;;;;;;;;5016326;28;20053;-85
2022/04/07 12:25:40;;;;;;;7.07;0.65;;;;;;;;;;5016469;28;20421;-80
2022/04/07 12:28:16;;;;;;;0.10;0.10;;;;;;;;;;5011035;28;20426;-84
2022/04/07 12:30:50;;;;;;;0.00;0.00;;;;;;;;;;5016669;28;20095;-82
2022/04/07 12:33:44;;;;;;;0.10;0.10;;;;;;;;;;5021054;28;20037;-85
2022/04/07 12:36:13;;;;;;;0.10;0.10;;;;;;;;;;5020442;28;20030;-86
2022/04/07 12:38:42;;;;;;;0.43;0.35;;;;;;;;;;5016014;28;20022;-85
2022/04/07 12:41:20;;;;;;;0.32;0.10;;;;;;;;;;5015284;28;20097;-91
2022/04/07 12:43:50;;;;;;;0.65;0.65;;;;;;;;;;5015615;28;20034;-90
2022/04/07 12:46:20;;;;;;;0.25;0.25;;;;;;;;;;4999069;28;20112;-84
2022/04/07 12:49:05;;;;;;;2.10;0.88;;;;;;;;;;5015139;28;20022;-85
2022/04/07 12:51:34;;;;;;;0.10;0.10;;;;;;;;;;5015017;28;20399;-81
2022/04/07 12:54:11;;;;;;;0.00;0.00;;;;;;;;;;5015267;28;20025;-86
2022/04/07 12:56:37;;;;;;;0.00;0.00;;;;;;;;;;5014911;28;20022;-82
2022/04/07 12:59:14;;;;;;;0.00;0.00;;;;;;;;;;4998782;28;20048;-84
2022/04/07 13:01:41;;;;;;;0.00;0.00;;;;;;;;;;5020890;28;20095;-83
2022/04/07 13:04:10;;;;;;;0.15;0.15;;;;;;;;;;5013984;28;20026;-82
2022/04/07 13:06:37;;;;;;;0.10;0.10;;;;;;;;;;5014141;28;20333;-81
2022/04/07 13:09:07;;;;;;;0.40;0.40;;;;;;;;;;4998059;28;20022;-81
2022/04/07 13:11:38;;;;;;;0.43;0.43;;;;;;;;;;5015388;28;20036;-82
2022/04/07 13:14:08;;;;;;;0.20;0.20;;;;;;;;;;5016266;28;20455;-84
2022/04/07 13:16:38;;;;;;;0.30;0.15;;;;;;;;;;5018000;28;20048;-83
2022/04/07 13:19:04;;;;;;;0.10;0.10;;;;;;;;;;5016285;28;20037;-85
2022/04/07 13:21:29;;;;;;;0.10;0.10;;;;;;;;;;5010236;28;20041;-86
2022/04/07 13:23:55;;;;;;;0.05;0.05;;;;;;;;;;5014623;28;20095;-85
2022/04/07 13:26:21;;;;;;;1.85;0.57;;;;;;;;;;5015617;28;20045;-88
2022/04/07 13:28:48;;;;;;;1.00;0.52;;;;;;;;;;5031050;28;20022;-83
2022/04/07 13:31:13;;;;;;;0.00;0.00;;;;;;;;;;5014488;28;20060;-81
2022/04/07 13:33:39;;;;;;;0.00;0.00;;;;;;;;;;5018786;28;20026;-81
2022/04/07 13:36:06;;;;;;;0.00;0.00;;;;;;;;;;5015609;28;20443;-79
2022/04/07 13:38:33;;;;;;;0.00;0.00;;;;;;;;;;5014967;28;20044;-82
2022/04/07 13:41:00;;;;;;;0.00;0.00;;;;;;;;;;5014344;28;20088;-83
2022/04/07 13:43:29;;;;;;;0.17;0.17;;;;;;;;;;5013847;28;20022;-83
2022/04/07 13:45:54;;;;;;;0.10;0.10;;;;;;;;;;5022904;28;20040;-81
2022/04/07 13:48:20;;;;;;;0.10;0.00;;;;;;;;;;5019046;28;20364;-82
2022/04/07 13:50:46;;;;;;;1.45;0.80;;;;;;;;;;5014544;28;20075;-83
2022/04/07 13:53:18;;;;;;;3.03;0.40;;;;;;;;;;4997370;28;20519;-85
2022/04/07 13:55:44;;;;;;;0.55;0.55;;;;;;;;;;5014167;28;20105;-87
2022/04/07 13:58:12;;;;;;;0.05;0.05;;;;;;;;;;5014795;28;20113;-85
2022/04/07 14:00:41;;;;;;;0.00;0.00;;;;;;;;;;5021719;28;20025;-84
2022/04/07 14:03:07;;;;;;;0.25;0.25;;;;;;;;;;5018435;28;20036;-85
2022/04/07 14:05:33;;;;;;;0.20;0.20;;;;;;;;;;5013977;28;20113;-86
2022/04/07 14:07:59;;;;;;;0.00;0.00;;;;;;;;;;5014960;28;20503;-84
2022/04/07 14:10:25;;;;;;;0.30;0.30;;;;;;;;;;5013729;28;20053;-83
2022/04/07 14:12:52;;;;;;;0.32;0.32;;;;;;;;;;5014594;28;20109;-83
2022/04/07 14:15:18;;;;;;;0.00;0.00;;;;;;;;;;5015568;28;20025;-81
2022/04/07 14:17:45;;;;;;;0.00;0.00;;;;;;;;;;5018740;28;20407;-84
2022/04/07 14:20:13;;;;;;;0.25;0.25;;;;;;;;;;5017424;28;20112;-83
2022/04/07 14:22:41;;;;;;;0.30;0.30;;;;;;;;;;5013697;28;20022;-86
2022/04/07 14:25:10;;;;;;;0.47;0.47;;;;;;;;;;5012906;28;20030;-81
2022/04/07 14:27:35;;;;;;;0.17;0.17;;;;;;;;;;5014580;28;20030;-85
2022/04/07 14:30:01;;;;;;;1.98;1.75;;;;;;;;;;5018487;28;20352;-80
2022/04/07 14:32:28;;;;;;;0.00;0.00;;;;;;;;;;5015161;28;20459;-85
2022/04/07 14:34:54;;;;;;;6.88;0.45;;;;;;;;;;5016916;28;20029;-85
2022/04/07 14:37:21;;;;;;;0.13;0.13;;;;;;;;;;5016897;28;20054;-88
2022/04/07 14:39:49;;;;;;;0.13;0.13;;;;;;;;;;5017031;28;20030;-84
2022/04/07 14:42:14;;;;;;;0.68;0.22;;;;;;;;;;5024878;28;20057;-82
2022/04/07 14:44:43;;;;;;;1.08;0.95;;;;;;;;;;5027343;28;20041;-84
2022/04/07 14:47:09;;;;;;;0.30;0.30;;;;;;;;;;5015914;28;20033;-87
2022/04/07 14:49:34;;;;;;;0.00;0.00;;;;;;;;;;5014368;28;20117;-88
2022/04/07 14:52:00;;;;;;;0.08;0.08;;;;;;;;;;5011647;28;20034;-88
2022/04/07 14:54:26;;;;;;;0.38;0.38;;;;;;;;;;5014306;28;20036;-88